Current Conditions
Partly Cloudy
Conditions




Pressure
1007.92 (hPa) - 29.76 (inHG)
Visibility

10.0 (km) - 6.2 (miles)
   Temperature
28  °C
82°F
23  °C
Dewpoint
74  %
 Humidity
   Wind Speed
10  km/h
5  kts
6  mph
2.7  m/s
   Wind Direction
 110°
East South
East
   Airport Data
WSSL
Location Seletar Airport 6 km (3.73 mi)
Metar :WSSL 141000Z 11005KT 070V130 9999 FEW018 BKN260 28/23 Q1008
Tue 14th July 18:00 pm
   Raw Metar Info
Raw METAR is the most common format in the world for the transmission of observational weather data. It is highly standardized through the International Civil Aviation Organization (ICAO), which allows it to be understood throughout most of the world.
   API Info
Data Provided by
https://www.checkwx.com/weather/WSSL
   © Info
CSS/SVG/PHP scripts were developed by weather34.com for use in the weather34 template © 2015-2020

Guide Info provided by Metar-Wikipedia